sensor_id;sensor_type;location;lat;lon;timestamp;pressure;altitude;pressure_sealevel;temperature;humidity
84427;BME280;74637;52.170;21.034;2024-01-27T00:00:13;100334.14;;;3.70;91.20
84427;BME280;74637;52.170;21.034;2024-01-27T00:03:00;100343.65;;;3.74;90.38
84427;BME280;74637;52.170;21.034;2024-01-27T00:05:27;100348.39;;;3.82;88.98
84427;BME280;74637;52.170;21.034;2024-01-27T00:07:54;100356.36;;;3.86;89.23
84427;BME280;74637;52.170;21.034;2024-01-27T00:10:20;100359.23;;;3.91;88.43
84427;BME280;74637;52.170;21.034;2024-01-27T00:12:48;100376.19;;;3.92;88.28
84427;BME280;74637;52.170;21.034;2024-01-27T00:15:14;100385.40;;;3.95;87.45
84427;BME280;74637;52.170;21.034;2024-01-27T00:17:41;100403.02;;;4.00;86.40
84427;BME280;74637;52.170;21.034;2024-01-27T00:20:08;100389.38;;;4.06;85.99
84427;BME280;74637;52.170;21.034;2024-01-27T00:22:34;100393.66;;;4.02;85.94
84427;BME280;74637;52.170;21.034;2024-01-27T00:25:01;100392.12;;;4.01;85.96
84427;BME280;74637;52.170;21.034;2024-01-27T00:27:28;100398.25;;;4.02;84.83
84427;BME280;74637;52.170;21.034;2024-01-27T00:29:54;100418.20;;;4.04;84.38
84427;BME280;74637;52.170;21.034;2024-01-27T00:32:21;100414.65;;;4.05;83.55
84427;BME280;74637;52.170;21.034;2024-01-27T00:34:47;100424.33;;;4.04;84.62
84427;BME280;74637;52.170;21.034;2024-01-27T00:37:14;100425.95;;;4.02;84.46
84427;BME280;74637;52.170;21.034;2024-01-27T00:39:40;100428.34;;;3.96;85.40
84427;BME280;74637;52.170;21.034;2024-01-27T00:42:07;100429.13;;;3.93;85.04
84427;BME280;74637;52.170;21.034;2024-01-27T00:44:34;100435.73;;;3.88;85.01
84427;BME280;74637;52.170;21.034;2024-01-27T00:47:02;100446.79;;;3.87;84.93
84427;BME280;74637;52.170;21.034;2024-01-27T00:49:30;100443.02;;;3.83;85.28
84427;BME280;74637;52.170;21.034;2024-01-27T00:51:56;100451.44;;;3.83;84.29
84427;BME280;74637;52.170;21.034;2024-01-27T00:54:23;100456.16;;;3.83;83.77
84427;BME280;74637;52.170;21.034;2024-01-27T00:56:52;100462.75;;;3.79;84.39
84427;BME280;74637;52.170;21.034;2024-01-27T00:59:19;100480.09;;;3.79;84.20
84427;BME280;74637;52.170;21.034;2024-01-27T01:01:45;100476.30;;;3.76;84.67
84427;BME280;74637;52.170;21.034;2024-01-27T01:04:12;100476.67;;;3.76;84.35
84427;BME280;74637;52.170;21.034;2024-01-27T01:06:39;100480.04;;;3.74;84.48
84427;BME280;74637;52.170;21.034;2024-01-27T01:09:06;100480.70;;;3.76;83.93
84427;BME280;74637;52.170;21.034;2024-01-27T01:11:33;100480.27;;;3.71;84.25
84427;BME280;74637;52.170;21.034;2024-01-27T01:14:00;100483.55;;;3.74;84.66
84427;BME280;74637;52.170;21.034;2024-01-27T01:16:26;100479.85;;;3.75;85.28
84427;BME280;74637;52.170;21.034;2024-01-27T01:18:53;100486.55;;;3.72;84.69
84427;BME280;74637;52.170;21.034;2024-01-27T01:21:20;100483.07;;;3.71;84.26
84427;BME280;74637;52.170;21.034;2024-01-27T01:23:46;100490.40;;;3.72;83.95
84427;BME280;74637;52.170;21.034;2024-01-27T01:26:13;100493.35;;;3.74;83.03
84427;BME280;74637;52.170;21.034;2024-01-27T01:28:40;100495.48;;;3.73;83.60
84427;BME280;74637;52.170;21.034;2024-01-27T01:31:07;100501.60;;;3.74;82.71
84427;BME280;74637;52.170;21.034;2024-01-27T01:33:34;100501.58;;;3.75;83.65
84427;BME280;74637;52.170;21.034;2024-01-27T01:36:00;100515.45;;;3.74;82.59
84427;BME280;74637;52.170;21.034;2024-01-27T01:38:27;100513.34;;;3.73;82.07
84427;BME280;74637;52.170;21.034;2024-01-27T01:40:54;100514.35;;;3.75;82.29
84427;BME280;74637;52.170;21.034;2024-01-27T01:43:20;100521.33;;;3.78;81.84
84427;BME280;74637;52.170;21.034;2024-01-27T01:45:47;100522.87;;;3.80;81.96
84427;BME280;74637;52.170;21.034;2024-01-27T01:48:14;100526.11;;;3.75;82.62
84427;BME280;74637;52.170;21.034;2024-01-27T01:50:40;100523.02;;;3.72;83.06
84427;BME280;74637;52.170;21.034;2024-01-27T01:53:07;100515.18;;;3.70;82.82
84427;BME280;74637;52.170;21.034;2024-01-27T01:55:34;100525.02;;;3.68;83.16
84427;BME280;74637;52.170;21.034;2024-01-27T01:58:01;100519.97;;;3.66;83.93
84427;BME280;74637;52.170;21.034;2024-01-27T02:00:28;100518.59;;;3.65;83.49
84427;BME280;74637;52.170;21.034;2024-01-27T02:02:54;100520.83;;;3.68;82.77
84427;BME280;74637;52.170;21.034;2024-01-27T02:05:21;100525.86;;;3.70;83.16
84427;BME280;74637;52.170;21.034;2024-01-27T02:07:47;100537.61;;;3.71;83.31
84427;BME280;74637;52.170;21.034;2024-01-27T02:10:15;100534.77;;;3.71;83.09
84427;BME280;74637;52.170;21.034;2024-01-27T02:12:43;100533.05;;;3.70;83.54
84427;BME280;74637;52.170;21.034;2024-01-27T02:15:11;100537.84;;;3.67;83.98
84427;BME280;74637;52.170;21.034;2024-01-27T02:17:41;100542.02;;;3.69;83.17
84427;BME280;74637;52.170;21.034;2024-01-27T02:20:08;100541.14;;;3.69;84.01
84427;BME280;74637;52.170;21.034;2024-01-27T02:22:35;100545.55;;;3.67;84.60
84427;BME280;74637;52.170;21.034;2024-01-27T02:25:02;100544.15;;;3.67;84.02
84427;BME280;74637;52.170;21.034;2024-01-27T02:27:29;100539.77;;;3.67;85.22
84427;BME280;74637;52.170;21.034;2024-01-27T02:29:58;100548.04;;;3.65;84.35
84427;BME280;74637;52.170;21.034;2024-01-27T02:32:25;100541.73;;;3.65;84.49
84427;BME280;74637;52.170;21.034;2024-01-27T02:34:51;100552.05;;;3.66;84.61
84427;BME280;74637;52.170;21.034;2024-01-27T02:37:18;100550.42;;;3.69;84.74
84427;BME280;74637;52.170;21.034;2024-01-27T02:39:45;100547.85;;;3.65;84.95
84427;BME280;74637;52.170;21.034;2024-01-27T02:42:12;100552.41;;;3.66;84.50
84427;BME280;74637;52.170;21.034;2024-01-27T02:44:39;100553.81;;;3.65;84.46
84427;BME280;74637;52.170;21.034;2024-01-27T02:47:05;100555.16;;;3.68;84.29
84427;BME280;74637;52.170;21.034;2024-01-27T02:49:32;100560.30;;;3.66;83.85
84427;BME280;74637;52.170;21.034;2024-01-27T02:51:58;100559.28;;;3.64;83.18
84427;BME280;74637;52.170;21.034;2024-01-27T02:54:25;100568.16;;;3.67;83.50
84427;BME280;74637;52.170;21.034;2024-01-27T02:56:52;100560.78;;;3.68;82.50
84427;BME280;74637;52.170;21.034;2024-01-27T02:59:18;100570.77;;;3.68;82.71
84427;BME280;74637;52.170;21.034;2024-01-27T03:01:45;100580.20;;;3.70;82.32
84427;BME280;74637;52.170;21.034;2024-01-27T03:04:12;100576.54;;;3.69;83.18
84427;BME280;74637;52.170;21.034;2024-01-27T03:06:38;100583.07;;;3.66;81.74
84427;BME280;74637;52.170;21.034;2024-01-27T03:09:05;100577.08;;;3.68;83.06
84427;BME280;74637;52.170;21.034;2024-01-27T03:11:32;100582.55;;;3.66;83.47
84427;BME280;74637;52.170;21.034;2024-01-27T03:13:58;100588.77;;;3.62;83.47
84427;BME280;74637;52.170;21.034;2024-01-27T03:16:25;100594.40;;;3.60;82.55
84427;BME280;74637;52.170;21.034;2024-01-27T03:18:52;100588.46;;;3.60;83.05
84427;BME280;74637;52.170;21.034;2024-01-27T03:21:18;100588.48;;;3.59;83.69
84427;BME280;74637;52.170;21.034;2024-01-27T03:23:45;100585.29;;;3.60;83.20
84427;BME280;74637;52.170;21.034;2024-01-27T03:26:12;100591.10;;;3.59;83.65
84427;BME280;74637;52.170;21.034;2024-01-27T03:28:38;100598.11;;;3.59;82.62
84427;BME280;74637;52.170;21.034;2024-01-27T03:31:05;100594.41;;;3.60;82.78
84427;BME280;74637;52.170;21.034;2024-01-27T03:33:31;100589.11;;;3.62;81.61
84427;BME280;74637;52.170;21.034;2024-01-27T03:35:58;100594.33;;;3.64;81.64
84427;BME280;74637;52.170;21.034;2024-01-27T03:38:26;100589.64;;;3.62;82.62
84427;BME280;74637;52.170;21.034;2024-01-27T03:40:52;100588.92;;;3.62;82.95
84427;BME280;74637;52.170;21.034;2024-01-27T03:43:19;100593.66;;;3.62;83.33
84427;BME280;74637;52.170;21.034;2024-01-27T03:45:46;100591.75;;;3.61;83.11
84427;BME280;74637;52.170;21.034;2024-01-27T03:48:12;100589.64;;;3.61;83.32
84427;BME280;74637;52.170;21.034;2024-01-27T03:50:39;100599.55;;;3.66;81.42
84427;BME280;74637;52.170;21.034;2024-01-27T03:53:05;100593.39;;;3.67;81.54
84427;BME280;74637;52.170;21.034;2024-01-27T03:55:32;100594.25;;;3.68;81.71
84427;BME280;74637;52.170;21.034;2024-01-27T03:58:00;100601.27;;;3.67;82.44
84427;BME280;74637;52.170;21.034;2024-01-27T04:00:29;100608.83;;;3.67;82.28
84427;BME280;74637;52.170;21.034;2024-01-27T04:02:59;100608.84;;;3.66;81.85
84427;BME280;74637;52.170;21.034;2024-01-27T04:05:28;100613.00;;;3.68;81.71
84427;BME280;74637;52.170;21.034;2024-01-27T04:07:54;100619.27;;;3.70;82.50
84427;BME280;74637;52.170;21.034;2024-01-27T04:10:22;100621.96;;;3.67;81.55
84427;BME280;74637;52.170;21.034;2024-01-27T04:12:49;100614.69;;;3.63;81.93
84427;BME280;74637;52.170;21.034;2024-01-27T04:15:15;100620.14;;;3.62;81.20
84427;BME280;74637;52.170;21.034;2024-01-27T04:17:42;100618.77;;;3.60;82.87
84427;BME280;74637;52.170;21.034;2024-01-27T04:20:09;100623.35;;;3.59;82.47
84427;BME280;74637;52.170;21.034;2024-01-27T04:22:36;100626.20;;;3.56;83.09
84427;BME280;74637;52.170;21.034;2024-01-27T04:25:03;100621.19;;;3.52;83.06
84427;BME280;74637;52.170;21.034;2024-01-27T04:27:30;100628.60;;;3.49;83.02
84427;BME280;74637;52.170;21.034;2024-01-27T04:29:56;100627.92;;;3.48;82.99
84427;BME280;74637;52.170;21.034;2024-01-27T04:32:23;100628.46;;;3.47;83.38
84427;BME280;74637;52.170;21.034;2024-01-27T04:34:50;100627.61;;;3.46;83.60
84427;BME280;74637;52.170;21.034;2024-01-27T04:37:16;100635.15;;;3.45;82.23
84427;BME280;74637;52.170;21.034;2024-01-27T04:39:43;100634.30;;;3.43;82.56
84427;BME280;74637;52.170;21.034;2024-01-27T04:42:09;100635.90;;;3.42;81.56
84427;BME280;74637;52.170;21.034;2024-01-27T04:44:40;100634.06;;;3.37;83.24
84427;BME280;74637;52.170;21.034;2024-01-27T04:47:07;100636.18;;;3.36;84.29
84427;BME280;74637;52.170;21.034;2024-01-27T04:49:33;100645.14;;;3.35;82.59
84427;BME280;74637;52.170;21.034;2024-01-27T04:52:00;100645.60;;;3.38;82.05
84427;BME280;74637;52.170;21.034;2024-01-27T04:54:27;100644.46;;;3.44;81.89
84427;BME280;74637;52.170;21.034;2024-01-27T04:56:53;100650.23;;;3.45;82.42
84427;BME280;74637;52.170;21.034;2024-01-27T04:59:20;100646.02;;;3.45;82.12
84427;BME280;74637;52.170;21.034;2024-01-27T05:01:46;100650.57;;;3.46;80.78
84427;BME280;74637;52.170;21.034;2024-01-27T05:04:13;100643.39;;;3.46;81.63
84427;BME280;74637;52.170;21.034;2024-01-27T05:06:44;100646.36;;;3.45;82.47
84427;BME280;74637;52.170;21.034;2024-01-27T05:09:11;100646.68;;;3.46;82.84
84427;BME280;74637;52.170;21.034;2024-01-27T05:11:38;100661.41;;;3.46;81.15
84427;BME280;74637;52.170;21.034;2024-01-27T05:14:05;100660.98;;;3.41;82.07
84427;BME280;74637;52.170;21.034;2024-01-27T05:16:31;100658.99;;;3.34;81.78
84427;BME280;74637;52.170;21.034;2024-01-27T05:18:59;100656.63;;;3.29;82.40
84427;BME280;74637;52.170;21.034;2024-01-27T05:21:26;100653.30;;;3.28;82.34
84427;BME280;74637;52.170;21.034;2024-01-27T05:23:53;100659.53;;;3.33;81.85
84427;BME280;74637;52.170;21.034;2024-01-27T05:26:19;100659.36;;;3.33;82.68
84427;BME280;74637;52.170;21.034;2024-01-27T05:28:46;100654.23;;;3.35;81.83
84427;BME280;74637;52.170;21.034;2024-01-27T05:31:12;100650.21;;;3.35;81.55
84427;BME280;74637;52.170;21.034;2024-01-27T05:33:39;100650.52;;;3.37;81.99
84427;BME280;74637;52.170;21.034;2024-01-27T05:36:06;100660.52;;;3.37;81.96
84427;BME280;74637;52.170;21.034;2024-01-27T05:38:32;100650.66;;;3.40;81.87
84427;BME280;74637;52.170;21.034;2024-01-27T05:41:03;100649.48;;;3.37;82.15
84427;BME280;74637;52.170;21.034;2024-01-27T05:43:30;100647.61;;;3.34;83.28
84427;BME280;74637;52.170;21.034;2024-01-27T05:45:56;100650.50;;;3.29;83.09
84427;BME280;74637;52.170;21.034;2024-01-27T05:48:23;100650.40;;;3.24;82.91
84427;BME280;74637;52.170;21.034;2024-01-27T05:51:00;100641.86;;;3.21;83.21
84427;BME280;74637;52.170;21.034;2024-01-27T05:53:27;100650.45;;;3.21;83.80
84427;BME280;74637;52.170;21.034;2024-01-27T05:55:54;100638.77;;;3.18;83.81
84427;BME280;74637;52.170;21.034;2024-01-27T05:58:20;100641.21;;;3.19;83.36
84427;BME280;74637;52.170;21.034;2024-01-27T06:00:48;100641.56;;;3.19;84.49
84427;BME280;74637;52.170;21.034;2024-01-27T06:03:15;100644.36;;;3.18;83.56
84427;BME280;74637;52.170;21.034;2024-01-27T06:05:44;100643.30;;;3.19;83.90
84427;BME280;74637;52.170;21.034;2024-01-27T06:08:10;100648.16;;;3.22;83.24
84427;BME280;74637;52.170;21.034;2024-01-27T06:10:37;100645.71;;;3.22;83.44
84427;BME280;74637;52.170;21.034;2024-01-27T06:13:04;100645.65;;;3.25;81.27
84427;BME280;74637;52.170;21.034;2024-01-27T06:15:31;100648.59;;;3.28;82.81
84427;BME280;74637;52.170;21.034;2024-01-27T06:17:58;100648.40;;;3.29;83.02
84427;BME280;74637;52.170;21.034;2024-01-27T06:20:25;100656.10;;;3.29;81.23
84427;BME280;74637;52.170;21.034;2024-01-27T06:22:51;100661.33;;;3.31;80.15
84427;BME280;74637;52.170;21.034;2024-01-27T06:25:21;100662.81;;;3.36;80.76
84427;BME280;74637;52.170;21.034;2024-01-27T06:27:48;100664.27;;;3.34;78.95
84427;BME280;74637;52.170;21.034;2024-01-27T06:30:15;100671.91;;;3.36;79.82
84427;BME280;74637;52.170;21.034;2024-01-27T06:32:42;100673.17;;;3.35;79.86
84427;BME280;74637;52.170;21.034;2024-01-27T06:35:09;100679.19;;;3.31;79.79
84427;BME280;74637;52.170;21.034;2024-01-27T06:37:35;100678.95;;;3.24;81.19
84427;BME280;74637;52.170;21.034;2024-01-27T06:40:02;100673.77;;;3.20;81.83
84427;BME280;74637;52.170;21.034;2024-01-27T06:42:29;100677.31;;;3.17;82.12
84427;BME280;74637;52.170;21.034;2024-01-27T06:44:56;100682.65;;;3.12;83.15
84427;BME280;74637;52.170;21.034;2024-01-27T06:47:22;100682.76;;;3.04;83.59
84427;BME280;74637;52.170;21.034;2024-01-27T06:49:49;100699.69;;;2.96;82.62
84427;BME280;74637;52.170;21.034;2024-01-27T06:52:15;100698.95;;;2.87;83.62
84427;BME280;74637;52.170;21.034;2024-01-27T06:54:42;100698.36;;;2.79;83.25
84427;BME280;74637;52.170;21.034;2024-01-27T06:57:20;100700.92;;;2.70;83.99
84427;BME280;74637;52.170;21.034;2024-01-27T06:59:48;100696.86;;;2.60;85.46
84427;BME280;74637;52.170;21.034;2024-01-27T07:02:25;100696.27;;;2.53;85.40
84427;BME280;74637;52.170;21.034;2024-01-27T07:04:55;100698.95;;;2.47;85.78
84427;BME280;74637;52.170;21.034;2024-01-27T07:07:25;100696.92;;;2.41;86.41
84427;BME280;74637;52.170;21.034;2024-01-27T07:09:54;100696.30;;;2.36;86.72
84427;BME280;74637;52.170;21.034;2024-01-27T07:12:20;100699.85;;;2.32;86.87
84427;BME280;74637;52.170;21.034;2024-01-27T07:14:47;100703.55;;;2.29;87.26
84427;BME280;74637;52.170;21.034;2024-01-27T07:17:13;100700.42;;;2.27;86.95
84427;BME280;74637;52.170;21.034;2024-01-27T07:19:40;100708.66;;;2.25;87.52
84427;BME280;74637;52.170;21.034;2024-01-27T07:22:06;100705.67;;;2.27;87.43
84427;BME280;74637;52.170;21.034;2024-01-27T07:24:33;100701.45;;;2.29;87.40
84427;BME280;74637;52.170;21.034;2024-01-27T07:27:00;100712.10;;;2.30;86.93
84427;BME280;74637;52.170;21.034;2024-01-27T07:29:27;100712.31;;;2.28;87.87
84427;BME280;74637;52.170;21.034;2024-01-27T07:31:54;100714.17;;;2.33;87.18
84427;BME280;74637;52.170;21.034;2024-01-27T07:34:21;100711.40;;;2.31;87.55
84427;BME280;74637;52.170;21.034;2024-01-27T07:36:47;100718.40;;;2.31;88.12
84427;BME280;74637;52.170;21.034;2024-01-27T07:39:15;100723.84;;;2.30;87.74
84427;BME280;74637;52.170;21.034;2024-01-27T07:41:42;100717.38;;;2.28;88.05
84427;BME280;74637;52.170;21.034;2024-01-27T07:44:10;100717.39;;;2.27;87.85
84427;BME280;74637;52.170;21.034;2024-01-27T07:46:38;100717.60;;;2.24;88.29
84427;BME280;74637;52.170;21.034;2024-01-27T07:49:06;100723.89;;;2.24;87.75
84427;BME280;74637;52.170;21.034;2024-01-27T07:51:33;100720.55;;;2.26;88.34
84427;BME280;74637;52.170;21.034;2024-01-27T07:54:00;100726.52;;;2.25;88.53
84427;BME280;74637;52.170;21.034;2024-01-27T07:56:27;100722.17;;;2.23;88.96
84427;BME280;74637;52.170;21.034;2024-01-27T07:58:53;100729.15;;;2.24;88.31
84427;BME280;74637;52.170;21.034;2024-01-27T08:01:20;100733.86;;;2.24;88.66
84427;BME280;74637;52.170;21.034;2024-01-27T08:03:46;100735.48;;;2.20;88.62
84427;BME280;74637;52.170;21.034;2024-01-27T08:06:18;100739.35;;;2.18;88.44
84427;BME280;74637;52.170;21.034;2024-01-27T08:08:48;100740.06;;;2.17;88.61
84427;BME280;74637;52.170;21.034;2024-01-27T08:11:15;100746.58;;;2.13;89.03
84427;BME280;74637;52.170;21.034;2024-01-27T08:13:44;100747.80;;;2.12;88.77
84427;BME280;74637;52.170;21.034;2024-01-27T08:16:10;100749.20;;;2.11;88.75
84427;BME280;74637;52.170;21.034;2024-01-27T08:18:39;100753.23;;;2.12;89.00
84427;BME280;74637;52.170;21.034;2024-01-27T08:21:08;100750.45;;;2.10;88.98
84427;BME280;74637;52.170;21.034;2024-01-27T08:23:34;100748.02;;;2.09;89.81
84427;BME280;74637;52.170;21.034;2024-01-27T08:26:01;100750.79;;;2.10;89.48
84427;BME280;74637;52.170;21.034;2024-01-27T08:28:31;100747.80;;;2.11;89.43
84427;BME280;74637;52.170;21.034;2024-01-27T08:30:58;100747.30;;;2.09;89.67
84427;BME280;74637;52.170;21.034;2024-01-27T08:33:26;100754.64;;;2.10;89.96
84427;BME280;74637;52.170;21.034;2024-01-27T08:35:53;100752.70;;;2.11;89.48
84427;BME280;74637;52.170;21.034;2024-01-27T08:38:19;100752.54;;;2.11;89.47
84427;BME280;74637;52.170;21.034;2024-01-27T08:40:46;100752.73;;;2.09;89.36
84427;BME280;74637;52.170;21.034;2024-01-27T08:43:13;100759.03;;;2.09;89.94
84427;BME280;74637;52.170;21.034;2024-01-27T08:45:39;100760.39;;;2.11;88.87
84427;BME280;74637;52.170;21.034;2024-01-27T08:48:06;100758.82;;;2.12;89.32
84427;BME280;74637;52.170;21.034;2024-01-27T08:50:33;100765.48;;;2.09;89.65
84427;BME280;74637;52.170;21.034;2024-01-27T08:52:59;100774.92;;;2.09;89.46
84427;BME280;74637;52.170;21.034;2024-01-27T08:55:26;100775.12;;;2.07;89.64
84427;BME280;74637;52.170;21.034;2024-01-27T08:57:53;100777.75;;;2.07;89.57
84427;BME280;74637;52.170;21.034;2024-01-27T09:00:20;100774.45;;;2.05;90.17
84427;BME280;74637;52.170;21.034;2024-01-27T09:02:46;100782.66;;;2.07;90.36
84427;BME280;74637;52.170;21.034;2024-01-27T09:05:14;100781.60;;;2.07;90.33
84427;BME280;74637;52.170;21.034;2024-01-27T09:07:40;100793.98;;;2.09;89.97
84427;BME280;74637;52.170;21.034;2024-01-27T09:10:07;100794.86;;;2.09;89.57
84427;BME280;74637;52.170;21.034;2024-01-27T09:12:34;100802.91;;;2.08;89.48
84427;BME280;74637;52.170;21.034;2024-01-27T09:15:01;100799.80;;;2.03;89.87
84427;BME280;74637;52.170;21.034;2024-01-27T09:17:27;100799.11;;;2.02;90.31
84427;BME280;74637;52.170;21.034;2024-01-27T09:19:54;100808.56;;;2.03;90.14
84427;BME280;74637;52.170;21.034;2024-01-27T09:22:20;100803.14;;;2.03;90.57
84427;BME280;74637;52.170;21.034;2024-01-27T09:24:47;100803.32;;;2.01;90.52
84427;BME280;74637;52.170;21.034;2024-01-27T09:27:13;100809.59;;;2.03;90.85
84427;BME280;74637;52.170;21.034;2024-01-27T09:29:40;100815.54;;;2.03;90.98
84427;BME280;74637;52.170;21.034;2024-01-27T09:32:06;100814.84;;;2.04;91.20
84427;BME280;74637;52.170;21.034;2024-01-27T09:34:33;100816.05;;;2.06;91.43
84427;BME280;74637;52.170;21.034;2024-01-27T09:37:01;100824.76;;;2.10;91.40
84427;BME280;74637;52.170;21.034;2024-01-27T09:39:27;100817.91;;;2.14;91.66
84427;BME280;74637;52.170;21.034;2024-01-27T09:41:54;100822.91;;;2.20;91.58
84427;BME280;74637;52.170;21.034;2024-01-27T09:44:23;100822.87;;;2.25;91.15
84427;BME280;74637;52.170;21.034;2024-01-27T09:46:51;100826.34;;;2.28;90.97
84427;BME280;74637;52.170;21.034;2024-01-27T09:49:18;100834.88;;;2.30;91.25
84427;BME280;74637;52.170;21.034;2024-01-27T09:51:44;100833.98;;;2.33;91.17
84427;BME280;74637;52.170;21.034;2024-01-27T09:54:11;100839.86;;;2.39;91.26
84427;BME280;74637;52.170;21.034;2024-01-27T09:56:38;100840.88;;;2.43;90.57
84427;BME280;74637;52.170;21.034;2024-01-27T09:59:05;100834.02;;;2.45;91.09
84427;BME280;74637;52.170;21.034;2024-01-27T10:01:33;100840.96;;;2.52;91.03
84427;BME280;74637;52.170;21.034;2024-01-27T10:04:00;100840.21;;;2.57;90.77
84427;BME280;74637;52.170;21.034;2024-01-27T10:06:27;100847.71;;;2.59;90.89
84427;BME280;74637;52.170;21.034;2024-01-27T10:08:55;100849.63;;;2.59;90.34
84427;BME280;74637;52.170;21.034;2024-01-27T10:11:22;100851.91;;;2.59;90.10
84427;BME280;74637;52.170;21.034;2024-01-27T10:13:55;100853.35;;;2.56;90.08
84427;BME280;74637;52.170;21.034;2024-01-27T10:16:22;100862.47;;;2.53;90.27
84427;BME280;74637;52.170;21.034;2024-01-27T10:19:01;100863.02;;;2.50;89.89
84427;BME280;74637;52.170;21.034;2024-01-27T10:21:28;100866.39;;;2.46;89.89
84427;BME280;74637;52.170;21.034;2024-01-27T10:23:54;100874.46;;;2.42;90.25
84427;BME280;74637;52.170;21.034;2024-01-27T10:26:21;100873.98;;;2.39;90.61
84427;BME280;74637;52.170;21.034;2024-01-27T10:28:56;100877.83;;;2.38;90.56
84427;BME280;74637;52.170;21.034;2024-01-27T10:31:31;100877.83;;;2.38;90.50
84427;BME280;74637;52.170;21.034;2024-01-27T10:33:58;100876.78;;;2.39;90.39
84427;BME280;74637;52.170;21.034;2024-01-27T10:36:25;100880.98;;;2.38;90.68
84427;BME280;74637;52.170;21.034;2024-01-27T10:38:52;100883.59;;;2.40;91.00
84427;BME280;74637;52.170;21.034;2024-01-27T10:41:22;100888.27;;;2.44;91.11
84427;BME280;74637;52.170;21.034;2024-01-27T10:43:51;100891.38;;;2.48;90.81
84427;BME280;74637;52.170;21.034;2024-01-27T10:46:20;100898.89;;;2.51;90.63
84427;BME280;74637;52.170;21.034;2024-01-27T10:48:52;100899.75;;;2.52;90.44
84427;BME280;74637;52.170;21.034;2024-01-27T10:51:31;100903.09;;;2.50;90.56
84427;BME280;74637;52.170;21.034;2024-01-27T10:54:03;100905.34;;;2.53;90.80
84427;BME280;74637;52.170;21.034;2024-01-27T10:56:33;100910.40;;;2.54;90.67
84427;BME280;74637;52.170;21.034;2024-01-27T10:59:01;100908.65;;;2.54;90.49
84427;BME280;74637;52.170;21.034;2024-01-27T11:01:30;100910.75;;;2.54;90.80
84427;BME280;74637;52.170;21.034;2024-01-27T11:03:58;100911.09;;;2.55;91.01
84427;BME280;74637;52.170;21.034;2024-01-27T11:06:26;100915.98;;;2.55;90.94
84427;BME280;74637;52.170;21.034;2024-01-27T11:08:55;100921.73;;;2.58;90.42
84427;BME280;74637;52.170;21.034;2024-01-27T11:11:22;100928.59;;;2.54;90.05
84427;BME280;74637;52.170;21.034;2024-01-27T11:13:49;100931.24;;;2.51;90.49
84427;BME280;74637;52.170;21.034;2024-01-27T11:16:18;100940.49;;;2.54;90.25
84427;BME280;74637;52.170;21.034;2024-01-27T11:18:45;100941.55;;;2.54;90.43
84427;BME280;74637;52.170;21.034;2024-01-27T11:21:13;100945.38;;;2.54;90.78
84427;BME280;74637;52.170;21.034;2024-01-27T11:23:41;100953.80;;;2.54;89.84
84427;BME280;74637;52.170;21.034;2024-01-27T11:26:09;100956.11;;;2.48;89.78
84427;BME280;74637;52.170;21.034;2024-01-27T11:28:37;100959.98;;;2.47;90.37
84427;BME280;74637;52.170;21.034;2024-01-27T11:31:05;100968.00;;;2.50;91.03
84427;BME280;74637;52.170;21.034;2024-01-27T11:33:31;100970.44;;;2.52;91.01
84427;BME280;74637;52.170;21.034;2024-01-27T11:36:05;100974.45;;;2.52;90.78
84427;BME280;74637;52.170;21.034;2024-01-27T11:38:32;100972.55;;;2.49;90.69
84427;BME280;74637;52.170;21.034;2024-01-27T11:40:59;100977.98;;;2.49;90.73
84427;BME280;74637;52.170;21.034;2024-01-27T11:43:26;100980.77;;;2.50;90.75
84427;BME280;74637;52.170;21.034;2024-01-27T11:45:59;100987.94;;;2.50;90.86
84427;BME280;74637;52.170;21.034;2024-01-27T11:48:27;100989.66;;;2.54;91.34
84427;BME280;74637;52.170;21.034;2024-01-27T11:51:03;101001.14;;;2.61;91.60
84427;BME280;74637;52.170;21.034;2024-01-27T11:53:30;100999.55;;;2.64;91.20
84427;BME280;74637;52.170;21.034;2024-01-27T11:55:57;101008.11;;;2.64;90.17
84427;BME280;74637;52.170;21.034;2024-01-27T11:58:23;101011.30;;;2.60;90.26
84427;BME280;74637;52.170;21.034;2024-01-27T12:00:50;101012.54;;;2.61;90.78
84427;BME280;74637;52.170;21.034;2024-01-27T12:03:17;101025.27;;;2.63;90.83
84427;BME280;74637;52.170;21.034;2024-01-27T12:05:44;101028.06;;;2.65;90.74
84427;BME280;74637;52.170;21.034;2024-01-27T12:08:11;101036.63;;;2.67;90.60
84427;BME280;74637;52.170;21.034;2024-01-27T12:10:37;101037.33;;;2.66;90.64
84427;BME280;74637;52.170;21.034;2024-01-27T12:13:04;101040.83;;;2.67;90.39
84427;BME280;74637;52.170;21.034;2024-01-27T12:15:30;101049.05;;;2.67;90.04
84427;BME280;74637;52.170;21.034;2024-01-27T12:17:57;101051.15;;;2.66;89.29
84427;BME280;74637;52.170;21.034;2024-01-27T12:20:23;101056.09;;;2.62;89.67
84427;BME280;74637;52.170;21.034;2024-01-27T12:22:50;101063.60;;;2.61;90.11
84427;BME280;74637;52.170;21.034;2024-01-27T12:25:27;101067.98;;;2.62;90.41
84427;BME280;74637;52.170;21.034;2024-01-27T12:27:54;101073.60;;;2.60;89.92
84427;BME280;74637;52.170;21.034;2024-01-27T12:30:21;101078.33;;;2.59;90.24
84427;BME280;74637;52.170;21.034;2024-01-27T12:32:48;101084.27;;;2.59;90.05
84427;BME280;74637;52.170;21.034;2024-01-27T12:35:14;101090.92;;;2.61;89.52
84427;BME280;74637;52.170;21.034;2024-01-27T12:37:43;101097.41;;;2.58;90.23
84427;BME280;74637;52.170;21.034;2024-01-27T12:40:19;101099.31;;;2.60;90.54
84427;BME280;74637;52.170;21.034;2024-01-27T12:42:49;101107.70;;;2.62;90.70
84427;BME280;74637;52.170;21.034;2024-01-27T12:45:16;101112.08;;;2.63;90.33
84427;BME280;74637;52.170;21.034;2024-01-27T12:47:43;101118.02;;;2.64;90.49
84427;BME280;74637;52.170;21.034;2024-01-27T12:50:09;101125.89;;;2.65;90.28